Time;durP1;ratioP1;P1;durP2;ratioP2;P2;SDS_P1;SDS_P2;PMS_P1;PMS_P2;Temp;Humidity;BMP_temperature;BMP_pressure;BME280_temperature;BME280_humidity;BME280_pressure;Samples;Min_cycle;Max_cycle;Signal;HPM_P1;HPM_P2
2022/12/20 00:01:20;;;;;;;11.37;5.67;;;8.80;99.90;;;;;;5073432;28;20283;-80
2022/12/20 00:03:49;;;;;;;11.50;4.93;;;8.80;99.90;;;;;;5074255;28;20103;-80
2022/12/20 00:06:15;;;;;;;9.27;5.50;;;8.80;99.90;;;;;;5055637;28;20336;-80
2022/12/20 00:08:41;;;;;;;8.27;5.23;;;8.70;99.90;;;;;;5055650;28;20290;-80
2022/12/20 00:11:08;;;;;;;8.27;4.70;;;8.70;99.90;;;;;;5056049;28;20457;-80
2022/12/20 00:13:34;;;;;;;9.17;5.00;;;8.70;99.90;;;;;;5073300;28;20083;-80
2022/12/20 00:16:08;;;;;;;8.27;5.63;;;8.70;99.90;;;;;;5073827;28;20760;-80
2022/12/20 00:18:34;;;;;;;11.70;5.03;;;8.70;99.90;;;;;;5073229;28;20336;-80
2022/12/20 00:21:01;;;;;;;10.73;5.07;;;8.70;99.90;;;;;;5073149;28;20285;-80
2022/12/20 00:23:28;;;;;;;8.13;4.63;;;8.70;99.90;;;;;;5073147;28;20796;-80
2022/12/20 00:26:09;;;;;;;8.73;4.37;;;8.70;99.90;;;;;;5055491;28;20608;-80
2022/12/20 00:28:36;;;;;;;13.10;5.73;;;8.70;99.90;;;;;;5073534;28;20312;-80
2022/12/20 00:31:03;;;;;;;8.53;4.80;;;8.70;99.90;;;;;;5055223;28;20298;-79
2022/12/20 00:33:28;;;;;;;8.23;4.50;;;8.70;99.90;;;;;;5055688;28;20320;-80
2022/12/20 00:35:55;;;;;;;9.10;5.00;;;8.70;99.90;;;;;;5073140;28;20306;-80
2022/12/20 00:38:22;;;;;;;6.93;4.30;;;8.70;99.90;;;;;;5075226;28;20051;-80
2022/12/20 00:41:02;;;;;;;8.60;4.73;;;8.70;99.90;;;;;;5077575;28;20326;-81
2022/12/20 00:43:29;;;;;;;7.70;4.50;;;8.80;99.90;;;;;;5077596;28;20286;-81
2022/12/20 00:45:54;;;;;;;8.47;4.60;;;8.80;99.90;;;;;;5077010;28;20275;-80
2022/12/20 00:48:20;;;;;;;8.03;4.33;;;8.80;99.90;;;;;;5076998;28;20760;-80
2022/12/20 00:50:46;;;;;;;9.03;4.10;;;8.80;99.90;;;;;;5076800;28;20109;-79
2022/12/20 00:53:12;;;;;;;7.27;4.20;;;8.80;99.90;;;;;;5059064;28;20227;-80
2022/12/20 00:55:41;;;;;;;9.27;4.20;;;8.80;99.90;;;;;;5076720;28;20086;-80
2022/12/20 00:58:08;;;;;;;8.47;4.00;;;8.80;99.90;;;;;;5058941;28;20048;-80
2022/12/20 01:00:33;;;;;;;7.17;4.17;;;8.80;99.90;;;;;;5042390;28;20294;-80
2022/12/20 01:02:59;;;;;;;9.63;3.83;;;8.80;99.90;;;;;;5077177;28;20279;-80
2022/12/20 01:05:25;;;;;;;7.50;4.33;;;8.90;99.90;;;;;;5077052;28;20052;-80
2022/12/20 01:07:50;;;;;;;8.23;4.57;;;8.90;99.90;;;;;;5058977;28;20044;-80
2022/12/20 01:10:17;;;;;;;7.93;4.30;;;8.90;99.90;;;;;;5076426;28;20070;-81
2022/12/20 01:12:42;;;;;;;9.97;4.90;;;8.90;99.90;;;;;;5058871;28;20060;-80
2022/12/20 01:15:09;;;;;;;10.67;4.30;;;8.90;99.90;;;;;;5058406;28;20360;-80
2022/12/20 01:17:35;;;;;;;6.67;4.07;;;8.90;99.90;;;;;;5058787;28;20057;-80
2022/12/20 01:20:01;;;;;;;9.60;4.00;;;8.90;99.90;;;;;;5076794;28;20327;-80
2022/12/20 01:22:27;;;;;;;6.83;3.53;;;8.90;99.90;;;;;;5076281;28;20089;-80
2022/12/20 01:24:52;;;;;;;7.07;3.97;;;8.90;99.90;;;;;;5058488;28;20643;-80
2022/12/20 01:27:18;;;;;;;9.07;4.37;;;8.90;99.90;;;;;;5076746;28;20044;-80
2022/12/20 01:29:44;;;;;;;6.17;4.10;;;9.00;99.90;;;;;;5058279;28;20064;-80
2022/12/20 01:32:09;;;;;;;8.73;4.03;;;8.90;99.90;;;;;;5058097;28;20123;-80
2022/12/20 01:34:35;;;;;;;10.00;4.20;;;8.90;99.90;;;;;;5076045;28;20063;-80
2022/12/20 01:37:01;;;;;;;6.87;3.63;;;8.90;99.90;;;;;;5041831;28;20043;-80
2022/12/20 01:39:26;;;;;;;12.33;4.10;;;8.90;99.90;;;;;;5075809;28;20056;-80
2022/12/20 01:41:52;;;;;;;7.43;4.13;;;8.90;99.90;;;;;;5058180;28;20389;-80
2022/12/20 01:44:18;;;;;;;8.33;4.37;;;8.90;99.90;;;;;;5075878;28;20396;-80
2022/12/20 01:46:45;;;;;;;7.83;4.13;;;8.90;99.90;;;;;;5057919;28;20106;-80
2022/12/20 01:49:19;;;;;;;9.13;4.43;;;8.90;99.90;;;;;;5075270;28;20086;-80
2022/12/20 01:51:58;;;;;;;8.60;4.30;;;8.80;99.90;;;;;;5075690;28;20727;-80
2022/12/20 01:54:29;;;;;;;9.50;4.60;;;8.90;99.90;;;;;;5075725;28;20741;-80
2022/12/20 01:57:05;;;;;;;8.30;3.90;;;8.90;99.90;;;;;;5075657;28;20742;-80
2022/12/20 01:59:34;;;;;;;8.90;4.20;;;8.90;99.90;;;;;;5075581;28;20788;-80
2022/12/20 02:02:03;;;;;;;6.97;3.63;;;8.90;99.90;;;;;;5057971;28;20286;-81
2022/12/20 02:04:29;;;;;;;6.50;3.57;;;8.90;99.90;;;;;;5075502;28;20287;-80
2022/12/20 02:06:56;;;;;;;9.50;3.93;;;8.90;99.90;;;;;;5075400;28;20289;-80
2022/12/20 02:09:23;;;;;;;9.17;3.80;;;8.90;99.90;;;;;;5075349;28;20648;-80
2022/12/20 02:12:01;;;;;;;9.73;4.00;;;8.90;99.90;;;;;;5057579;28;20282;-81
2022/12/20 02:14:35;;;;;;;9.30;3.70;;;8.90;99.90;;;;;;5058296;28;20279;-81
2022/12/20 02:17:21;;;;;;;10.13;3.63;;;8.90;99.90;;;;;;5057947;28;20294;-80
2022/12/20 02:20:05;;;;;;;7.33;4.00;;;8.90;99.90;;;;;;5075766;28;20286;-81
2022/12/20 02:22:40;;;;;;;7.53;4.00;;;8.90;99.90;;;;;;5075728;28;20275;-81
2022/12/20 02:25:31;;;;;;;10.68;4.18;;;9.00;99.90;;;;;;5040759;28;20313;-80
2022/12/20 02:28:22;;;;;;;12.23;4.13;;;8.90;99.90;;;;;;5075385;28;20044;-80
2022/12/20 02:30:51;;;;;;;6.37;3.70;;;9.00;99.90;;;;;;5052358;28;20295;-80
2022/12/20 02:33:18;;;;;;;8.80;3.77;;;9.00;99.90;;;;;;5074673;28;20774;-81
2022/12/20 02:35:43;;;;;;;9.60;4.33;;;9.00;99.90;;;;;;5074823;28;20642;-80
2022/12/20 02:38:34;;;;;;;9.33;3.80;;;9.00;99.90;;;;;;5075064;28;20313;-81
2022/12/20 02:41:23;;;;;;;8.43;3.90;;;9.00;99.90;;;;;;5075488;28;20366;-80
2022/12/20 02:46:39;;;;;;;10.63;4.23;;;9.00;99.90;;;;;;5075168;28;20615;-81
2022/12/20 02:49:13;;;;;;;8.70;4.53;;;9.00;99.90;;;;;;5074185;28;20767;-82
2022/12/20 02:51:42;;;;;;;8.80;4.78;;;9.00;99.90;;;;;;5075330;28;20274;-82
2022/12/20 02:54:08;;;;;;;10.50;4.77;;;9.00;99.90;;;;;;5074465;28;20084;-82
2022/12/20 02:56:42;;;;;;;8.67;4.83;;;9.00;99.90;;;;;;5056548;28;20321;-82
2022/12/20 02:59:17;;;;;;;7.60;4.37;;;9.00;99.90;;;;;;5074972;28;20052;-82
2022/12/20 03:01:51;;;;;;;8.40;4.43;;;9.00;99.90;;;;;;5073624;28;20286;-82
2022/12/20 03:04:20;;;;;;;9.38;4.78;;;9.00;99.90;;;;;;5074313;28;20044;-82
2022/12/20 03:07:10;;;;;;;9.67;4.33;;;9.00;99.90;;;;;;5074177;28;20071;-80
2022/12/20 03:09:39;;;;;;;11.03;4.87;;;9.00;99.90;;;;;;5074495;28;20290;-82
2022/12/20 03:12:05;;;;;;;6.60;4.43;;;9.00;99.90;;;;;;5074059;28;20283;-82
2022/12/20 03:14:31;;;;;;;11.13;5.30;;;9.00;99.90;;;;;;5056743;28;20310;-82
2022/12/20 03:16:57;;;;;;;8.13;4.40;;;9.00;99.90;;;;;;5039885;28;20287;-80
2022/12/20 03:19:23;;;;;;;9.10;4.60;;;9.00;99.90;;;;;;5056212;28;20044;-81
2022/12/20 03:21:49;;;;;;;10.57;4.50;;;9.00;99.90;;;;;;5073967;28;20298;-80
2022/12/20 03:24:15;;;;;;;10.57;5.33;;;9.00;99.90;;;;;;5073881;28;20274;-81
2022/12/20 03:26:42;;;;;;;10.13;4.80;;;9.00;99.90;;;;;;5056045;28;20275;-81
2022/12/20 03:29:08;;;;;;;8.77;4.77;;;9.10;99.90;;;;;;5073487;28;20525;-81
2022/12/20 03:31:34;;;;;;;11.87;5.07;;;9.10;99.90;;;;;;5056246;28;20336;-81
2022/12/20 03:34:01;;;;;;;7.27;4.23;;;9.10;99.90;;;;;;5073817;28;20618;-81
2022/12/20 03:36:27;;;;;;;9.03;4.90;;;9.10;99.90;;;;;;5074069;28;20044;-81
2022/12/20 03:38:53;;;;;;;11.50;4.73;;;9.10;99.90;;;;;;5074048;28;20598;-81
2022/12/20 03:41:21;;;;;;;8.63;4.87;;;9.10;99.90;;;;;;5074304;28;20106;-81
2022/12/20 03:43:48;;;;;;;11.23;4.80;;;9.10;99.90;;;;;;5073848;28;20291;-81
2022/12/20 03:46:14;;;;;;;9.67;4.80;;;9.00;99.90;;;;;;5073599;28;20337;-81
2022/12/20 03:48:40;;;;;;;9.87;5.03;;;9.10;99.90;;;;;;5073651;28;20336;-82
2022/12/20 03:51:06;;;;;;;10.03;4.67;;;9.10;99.90;;;;;;5073536;28;20290;-81
2022/12/20 03:53:32;;;;;;;8.03;4.57;;;9.10;99.90;;;;;;5073212;28;20044;-81
2022/12/20 03:55:58;;;;;;;8.07;4.43;;;9.10;99.90;;;;;;5056051;28;20056;-81
2022/12/20 03:58:23;;;;;;;8.80;5.40;;;9.10;99.90;;;;;;5073751;28;20293;-81
2022/12/20 04:00:49;;;;;;;7.60;4.40;;;9.10;99.90;;;;;;5073499;28;20048;-81
2022/12/20 04:03:15;;;;;;;10.10;5.03;;;9.10;99.90;;;;;;5055820;28;20044;-81
2022/12/20 04:05:41;;;;;;;6.90;4.60;;;9.10;99.90;;;;;;5056020;28;20040;-81
2022/12/20 04:08:06;;;;;;;9.47;4.90;;;9.10;99.90;;;;;;5073442;28;20044;-81
2022/12/20 04:11:14;;;;;;;9.57;4.50;;;9.10;99.90;;;;;;5055062;28;20048;-82
2022/12/20 04:13:18;;;;;;;9.20;5.20;;;9.10;99.90;;;;;;5064632;28;20045;-81
2022/12/20 04:15:44;;;;;;;7.17;5.13;;;9.10;99.90;;;;;;5080251;28;20285;-81
2022/12/20 04:18:09;;;;;;;7.47;4.87;;;9.10;99.90;;;;;;5062536;28;20127;-81
2022/12/20 04:20:35;;;;;;;10.60;5.33;;;9.10;99.90;;;;;;5080371;28;20465;-81
2022/12/20 04:23:01;;;;;;;10.83;5.73;;;9.10;99.90;;;;;;5079843;28;20174;-81
2022/12/20 04:25:26;;;;;;;11.17;4.93;;;9.10;99.90;;;;;;5079511;28;20481;-81
2022/12/20 04:27:52;;;;;;;9.27;5.20;;;9.10;99.90;;;;;;5079649;28;20052;-82
2022/12/20 04:30:18;;;;;;;8.57;5.07;;;9.10;99.90;;;;;;5061995;28;20098;-82
2022/12/20 04:32:44;;;;;;;7.20;5.13;;;9.20;99.90;;;;;;5062114;28;20396;-82
2022/12/20 04:35:09;;;;;;;9.53;5.60;;;9.20;99.90;;;;;;5080018;28;20044;-81
2022/12/20 04:37:35;;;;;;;9.60;5.50;;;9.20;99.90;;;;;;5080334;28;20045;-81
2022/12/20 04:40:01;;;;;;;9.20;5.20;;;9.20;99.90;;;;;;5079384;28;20087;-81
2022/12/20 04:42:26;;;;;;;7.93;4.83;;;9.20;99.90;;;;;;5080387;28;20075;-81
2022/12/20 04:44:52;;;;;;;7.83;5.13;;;9.20;99.90;;;;;;5062054;28;20070;-81
2022/12/20 04:47:18;;;;;;;11.47;5.67;;;;;;;;;;5079753;28;20045;-81
2022/12/20 04:49:44;;;;;;;8.70;5.43;;;9.20;99.90;;;;;;5062420;28;20045;-81
2022/12/20 04:54:54;;;;;;;8.73;5.27;;;9.30;99.90;;;;;;5080158;28;20049;-82
2022/12/20 04:57:19;;;;;;;8.90;4.80;;;9.30;99.90;;;;;;5061672;28;20301;-81
2022/12/20 04:59:45;;;;;;;10.03;4.90;;;9.30;99.90;;;;;;5062602;28;20116;-81
2022/12/20 05:02:11;;;;;;;9.83;5.83;;;9.30;99.90;;;;;;5079536;28;20477;-81
2022/12/20 05:04:36;;;;;;;10.07;5.10;;;9.30;99.90;;;;;;5079478;28;20052;-81
2022/12/20 05:07:02;;;;;;;7.17;4.87;;;9.30;99.90;;;;;;5079500;28;20052;-80
2022/12/20 05:09:28;;;;;;;9.33;4.50;;;9.30;99.90;;;;;;5062028;28;20183;-81
2022/12/20 05:11:54;;;;;;;9.23;5.13;;;;;;;;;;5062155;28;20468;-81
2022/12/20 05:14:19;;;;;;;11.93;6.03;;;9.40;99.90;;;;;;5062243;28;20080;-80
2022/12/20 05:16:45;;;;;;;9.53;5.07;;;9.40;99.90;;;;;;5079313;28;20361;-81
2022/12/20 05:19:11;;;;;;;8.67;4.60;;;9.30;99.90;;;;;;5079931;28;20048;-80
2022/12/20 05:27:05;;;;;;;9.40;4.40;;;9.40;99.90;;;;;;5076924;28;20302;-80
2022/12/20 05:29:30;;;;;;;10.23;4.50;;;9.40;99.90;;;;;;5058638;28;20782;-80
2022/12/20 05:31:56;;;;;;;9.30;5.50;;;;;;;;;;5076667;28;20408;-81
2022/12/20 05:34:22;;;;;;;10.67;4.93;;;9.40;99.90;;;;;;5075968;28;20048;-80
2022/12/20 05:36:48;;;;;;;10.27;5.03;;;9.40;99.90;;;;;;5075641;28;20294;-80
2022/12/20 05:39:14;;;;;;;8.87;4.60;;;9.40;99.90;;;;;;5075857;28;20048;-80
2022/12/20 05:41:39;;;;;;;9.10;4.17;;;9.40;99.90;;;;;;5076510;28;20095;-80
2022/12/20 05:44:06;;;;;;;12.27;5.03;;;9.40;99.90;;;;;;5058880;28;20055;-80
2022/12/20 05:46:32;;;;;;;13.57;4.17;;;9.40;99.90;;;;;;5075817;28;20040;-80
2022/12/20 05:48:58;;;;;;;10.30;4.43;;;9.40;99.90;;;;;;5075822;28;20275;-80
2022/12/20 05:51:24;;;;;;;8.87;3.97;;;9.40;99.90;;;;;;5058540;28;20408;-80
2022/12/20 05:53:49;;;;;;;8.33;4.50;;;9.40;99.90;;;;;;5076242;28;20080;-80
2022/12/20 05:56:15;;;;;;;10.47;4.73;;;9.40;99.90;;;;;;5075520;28;20343;-80
2022/12/20 05:58:41;;;;;;;7.00;4.43;;;9.40;99.90;;;;;;5075527;28;20048;-80
2022/12/20 06:01:08;;;;;;;6.80;4.50;;;9.50;99.90;;;;;;5075214;28;20370;-80
2022/12/20 06:03:33;;;;;;;9.40;4.27;;;9.50;99.90;;;;;;5075493;28;20052;-80
2022/12/20 06:05:59;;;;;;;9.47;4.30;;;9.40;99.90;;;;;;5058143;28;20345;-80
2022/12/20 06:08:26;;;;;;;11.50;4.90;;;9.50;99.90;;;;;;5041426;28;20080;-80
2022/12/20 06:10:51;;;;;;;8.10;4.10;;;9.50;99.90;;;;;;5058208;28;20306;-80
2022/12/20 06:13:17;;;;;;;7.73;4.37;;;9.50;99.90;;;;;;5040869;28;20275;-80
2022/12/20 06:15:43;;;;;;;6.23;3.90;;;9.50;99.90;;;;;;5057680;28;20052;-80
2022/12/20 06:18:10;;;;;;;8.53;5.07;;;9.50;99.90;;;;;;5057225;28;20098;-81
2022/12/20 06:20:36;;;;;;;9.40;4.13;;;9.50;99.90;;;;;;5075205;28;20071;-80
2022/12/20 06:23:02;;;;;;;6.77;4.20;;;9.60;99.90;;;;;;5057480;28;20283;-81
2022/12/20 06:25:29;;;;;;;7.60;4.40;;;9.60;99.90;;;;;;5075046;28;20282;-81
2022/12/20 06:27:55;;;;;;;9.57;4.63;;;9.60;99.90;;;;;;5058144;28;20290;-80
2022/12/20 06:30:21;;;;;;;7.50;3.80;;;9.60;99.90;;;;;;5057131;28;20299;-81
2022/12/20 06:32:46;;;;;;;9.00;4.30;;;9.60;99.90;;;;;;5057169;28;20063;-81
2022/12/20 06:35:13;;;;;;;8.97;4.40;;;9.70;99.90;;;;;;5073807;28;20620;-80
2022/12/20 06:37:39;;;;;;;8.27;4.53;;;9.70;99.90;;;;;;5074886;28;20056;-80
2022/12/20 06:40:07;;;;;;;9.07;4.60;;;9.70;99.90;;;;;;5074629;28;20758;-80
2022/12/20 06:42:33;;;;;;;10.23;4.93;;;9.70;99.90;;;;;;5057288;28;20267;-80
2022/12/20 06:44:59;;;;;;;8.77;5.07;;;9.70;99.90;;;;;;5057139;28;20798;-80
2022/12/20 06:47:24;;;;;;;8.40;4.90;;;9.70;99.90;;;;;;5074643;28;20048;-81
2022/12/20 06:49:50;;;;;;;8.83;5.63;;;9.70;99.90;;;;;;5074835;28;20063;-81
2022/12/20 06:52:16;;;;;;;7.43;5.37;;;9.60;99.90;;;;;;5074883;28;20044;-80
2022/12/20 06:54:41;;;;;;;9.03;5.30;;;9.70;99.90;;;;;;5056945;28;20048;-80
2022/12/20 06:57:07;;;;;;;7.47;5.57;;;9.70;99.90;;;;;;5075032;28;20102;-80
2022/12/20 06:59:33;;;;;;;8.87;5.90;;;9.60;99.90;;;;;;5056590;28;20067;-80
2022/12/20 07:01:59;;;;;;;10.47;5.80;;;9.60;99.90;;;;;;5074393;28;20044;-80
2022/12/20 07:04:25;;;;;;;9.93;6.40;;;9.60;99.90;;;;;;5074748;28;20358;-81
2022/12/20 07:06:51;;;;;;;9.83;5.90;;;9.60;99.90;;;;;;5074300;28;20047;-81
2022/12/20 07:09:17;;;;;;;9.37;6.13;;;9.60;99.90;;;;;;5074128;28;20396;-82
2022/12/20 07:11:42;;;;;;;9.93;6.00;;;9.60;99.90;;;;;;5074170;28;20183;-81
2022/12/20 07:14:08;;;;;;;9.27;6.20;;;9.60;99.90;;;;;;5074249;28;20131;-81
2022/12/20 07:16:35;;;;;;;10.20;6.10;;;9.60;99.90;;;;;;5056934;28;20045;-81
2022/12/20 07:19:01;;;;;;;9.83;5.93;;;9.60;99.90;;;;;;5057259;28;20103;-81
2022/12/20 07:21:27;;;;;;;9.63;6.57;;;9.60;99.90;;;;;;5074061;28;20311;-81
2022/12/20 07:23:54;;;;;;;10.50;5.97;;;9.60;99.90;;;;;;5074015;28;20044;-81
2022/12/20 07:26:20;;;;;;;10.33;6.27;;;9.60;99.90;;;;;;5073987;28;20051;-81
2022/12/20 07:28:46;;;;;;;8.73;6.00;;;9.70;99.90;;;;;;5073983;28;20362;-81
2022/12/20 07:31:12;;;;;;;8.47;6.20;;;9.70;99.90;;;;;;5039595;28;20037;-82
2022/12/20 07:33:38;;;;;;;10.40;5.80;;;9.70;99.90;;;;;;5073877;28;20084;-81
2022/12/20 07:36:07;;;;;;;10.60;6.67;;;9.70;99.90;;;;;;5056289;28;20336;-81
2022/12/20 07:38:34;;;;;;;8.63;6.00;;;9.70;99.90;;;;;;5056941;28;20283;-81
2022/12/20 07:41:00;;;;;;;11.50;6.07;;;9.70;99.90;;;;;;5055818;28;20770;-81
2022/12/20 07:43:26;;;;;;;11.17;6.10;;;9.70;99.90;;;;;;5073749;28;20370;-81
2022/12/20 07:45:56;;;;;;;10.23;6.17;;;9.70;99.90;;;;;;5040110;28;20681;-81
2022/12/20 07:48:22;;;;;;;8.57;5.67;;;9.70;99.90;;;;;;5074351;28;20302;-81
2022/12/20 07:50:53;;;;;;;12.83;6.67;;;9.70;99.90;;;;;;5073727;28;20291;-80
2022/12/20 07:53:21;;;;;;;10.80;5.80;;;9.70;99.90;;;;;;5074276;28;20310;-81
2022/12/20 07:55:47;;;;;;;8.73;5.97;;;9.70;99.90;;;;;;5073564;28;20291;-81
2022/12/20 07:58:16;;;;;;;9.37;5.70;;;9.80;99.90;;;;;;5073549;28;20289;-81
2022/12/20 08:00:42;;;;;;;10.30;5.73;;;9.70;99.90;;;;;;5073463;28;20275;-82
2022/12/20 08:03:14;;;;;;;10.80;5.50;;;9.80;99.90;;;;;;5055606;28;20283;-83
2022/12/20 08:05:44;;;;;;;10.57;6.13;;;9.80;99.90;;;;;;5056045;28;20763;-80
2022/12/20 08:08:10;;;;;;;10.27;6.10;;;9.80;99.90;;;;;;5073489;28;20275;-80
2022/12/20 08:10:37;;;;;;;8.63;5.40;;;9.80;99.90;;;;;;5038901;28;20797;-80
2022/12/20 08:13:04;;;;;;;9.53;5.87;;;9.80;99.90;;;;;;5039025;28;20290;-79
2022/12/20 08:15:31;;;;;;;12.03;6.33;;;9.80;99.90;;;;;;5073326;28;20279;-80
2022/12/20 08:17:57;;;;;;;9.37;5.07;;;9.80;99.90;;;;;;5073290;28;20655;-79
2022/12/20 08:20:22;;;;;;;7.67;5.27;;;9.80;99.90;;;;;;5073653;28;20279;-79
2022/12/20 08:22:48;;;;;;;9.80;5.03;;;9.80;99.90;;;;;;5055304;28;20040;-79
2022/12/20 08:25:14;;;;;;;8.07;4.50;;;9.90;99.90;;;;;;5056216;28;20052;-80
2022/12/20 08:27:39;;;;;;;9.87;5.17;;;9.80;99.90;;;;;;5073581;28;20040;-80
2022/12/20 08:30:07;;;;;;;9.17;5.17;;;9.90;99.90;;;;;;5073067;28;20040;-79
2022/12/20 08:32:33;;;;;;;9.87;4.43;;;9.90;99.90;;;;;;5022721;28;20053;-79
2022/12/20 08:34:59;;;;;;;9.47;5.33;;;9.90;99.90;;;;;;5055549;28;20290;-79
2022/12/20 08:37:24;;;;;;;7.83;4.70;;;9.80;99.90;;;;;;5039735;28;20087;-79
2022/12/20 08:39:50;;;;;;;7.77;4.67;;;9.90;99.90;;;;;;5054970;28;20052;-79
2022/12/20 08:42:16;;;;;;;6.97;4.53;;;9.90;99.90;;;;;;5073729;28;20056;-79
2022/12/20 08:44:42;;;;;;;6.47;3.97;;;9.80;99.90;;;;;;5055383;28;20045;-79
2022/12/20 08:47:09;;;;;;;9.13;4.53;;;9.90;99.90;;;;;;5072965;28;20088;-79
2022/12/20 08:49:35;;;;;;;9.47;3.93;;;9.90;99.90;;;;;;5055296;28;20301;-79
2022/12/20 08:52:01;;;;;;;8.23;4.50;;;9.90;99.90;;;;;;5055223;28;20287;-80
2022/12/20 08:54:27;;;;;;;7.03;3.97;;;9.90;99.90;;;;;;5038656;28;20378;-79
2022/12/20 08:56:52;;;;;;;8.27;4.50;;;10.00;99.90;;;;;;5072900;28;20135;-80
2022/12/20 08:59:18;;;;;;;8.77;3.83;;;9.90;99.90;;;;;;5057170;28;20094;-79
2022/12/20 09:01:44;;;;;;;9.07;3.90;;;9.90;99.90;;;;;;5076700;28;20048;-80
2022/12/20 09:04:10;;;;;;;6.87;3.63;;;10.00;99.90;;;;;;5058801;28;20050;-80
2022/12/20 09:06:36;;;;;;;7.57;3.63;;;10.00;99.90;;;;;;5041740;28;20044;-80
2022/12/20 09:09:03;;;;;;;6.73;3.50;;;10.00;99.90;;;;;;5076537;28;20310;-81
2022/12/20 09:11:29;;;;;;;6.73;3.87;;;9.90;99.90;;;;;;5042115;28;20307;-80
2022/12/20 09:13:57;;;;;;;9.33;3.90;;;10.00;99.90;;;;;;5076479;28;20421;-80
2022/12/20 09:16:26;;;;;;;9.27;4.00;;;10.00;99.90;;;;;;5058784;28;20688;-79
2022/12/20 09:18:56;;;;;;;7.03;3.60;;;10.00;99.90;;;;;;5058983;28;20325;-80
2022/12/20 09:21:23;;;;;;;7.63;3.43;;;10.00;99.90;;;;;;5058912;28;20673;-80
2022/12/20 09:23:51;;;;;;;9.00;3.10;;;10.00;99.90;;;;;;5025585;28;20298;-79
2022/12/20 09:26:18;;;;;;;6.73;3.20;;;10.00;99.90;;;;;;5058451;28;20365;-79
2022/12/20 09:28:44;;;;;;;7.43;3.23;;;10.10;99.90;;;;;;5058351;28;20286;-80
2022/12/20 09:31:12;;;;;;;7.47;3.43;;;10.00;99.90;;;;;;5058163;28;20307;-79
2022/12/20 09:33:38;;;;;;;8.67;3.73;;;10.10;99.90;;;;;;5041765;28;20291;-79
2022/12/20 09:36:05;;;;;;;6.97;3.20;;;10.10;99.90;;;;;;5059167;28;20279;-79
2022/12/20 09:38:31;;;;;;;5.50;3.53;;;10.10;99.90;;;;;;5058395;28;20290;-79
2022/12/20 09:41:03;;;;;;;7.63;3.20;;;10.10;99.90;;;;;;5057517;28;20283;-80
2022/12/20 09:43:29;;;;;;;5.80;3.40;;;10.10;99.90;;;;;;5058766;28;20052;-80
2022/12/20 09:45:59;;;;;;;5.77;3.00;;;10.20;99.90;;;;;;5041231;28;20295;-80
2022/12/20 09:48:30;;;;;;;7.77;3.60;;;10.20;99.90;;;;;;5058325;28;20389;-80
2022/12/20 09:51:14;;;;;;;7.73;3.13;;;10.20;99.90;;;;;;5075969;28;20368;-79
2022/12/20 09:53:52;;;;;;;9.53;3.30;;;10.20;99.90;;;;;;5076345;28;20286;-79
2022/12/20 09:56:28;;;;;;;7.43;3.67;;;10.20;99.90;;;;;;5075604;28;20309;-78
2022/12/20 09:59:00;;;;;;;7.83;3.70;;;10.20;99.90;;;;;;5042339;28;20298;-78
2022/12/20 10:01:30;;;;;;;6.43;3.47;;;10.20;99.90;;;;;;5075795;28;20274;-78
2022/12/20 10:03:58;;;;;;;8.53;3.87;;;10.20;99.90;;;;;;5075477;28;20695;-79
2022/12/20 10:06:59;;;;;;;7.70;3.13;;;10.20;99.90;;;;;;5057893;28;20647;-79
2022/12/20 10:09:43;;;;;;;6.10;3.50;;;10.30;99.90;;;;;;5057658;28;20291;-78
2022/12/20 10:12:24;;;;;;;9.43;4.13;;;10.20;99.90;;;;;;5057677;28;20328;-77
2022/12/20 10:15:19;;;;;;;5.57;3.03;;;10.20;99.90;;;;;;5057927;28;20287;-77
2022/12/20 10:17:45;;;;;;;5.30;2.90;;;10.20;99.90;;;;;;5057525;28;20294;-78
2022/12/20 10:20:33;;;;;;;6.50;3.27;;;10.20;99.90;;;;;;5057431;28;20775;-76
2022/12/20 10:23:14;;;;;;;8.17;3.30;;;10.20;99.90;;;;;;5074947;28;20446;-78
2022/12/20 10:25:42;;;;;;;7.80;3.37;;;10.20;99.90;;;;;;5075176;28;20282;-80
2022/12/20 10:28:14;;;;;;;7.07;3.20;;;10.20;99.90;;;;;;5057077;28;20275;-81
2022/12/20 10:30:40;;;;;;;8.37;3.37;;;10.20;99.90;;;;;;5057078;28;20295;-79
2022/12/20 10:33:18;;;;;;;5.73;2.90;;;10.20;99.90;;;;;;5074555;28;20322;-78
2022/12/20 10:35:44;;;;;;;6.70;3.33;;;10.20;99.90;;;;;;5074683;28;20332;-77
2022/12/20 10:38:12;;;;;;;6.87;3.13;;;10.30;99.90;;;;;;5074589;28;20286;-78
2022/12/20 10:40:42;;;;;;;9.50;3.50;;;10.20;99.90;;;;;;5074769;28;20636;-77
2022/12/20 10:43:16;;;;;;;7.63;3.00;;;10.20;99.90;;;;;;5075396;28;20691;-77
2022/12/20 10:45:42;;;;;;;6.47;3.07;;;10.30;99.90;;;;;;5057337;28;20291;-79
2022/12/20 10:48:31;;;;;;;8.67;3.67;;;10.20;99.90;;;;;;5056710;28;20670;-81
2022/12/20 10:51:21;;;;;;;7.33;3.43;;;10.30;99.90;;;;;;5056386;28;20348;-78
2022/12/20 10:53:49;;;;;;;5.87;3.30;;;10.30;99.90;;;;;;5044132;28;20425;-76
2022/12/20 10:56:27;;;;;;;7.80;3.57;;;10.30;99.90;;;;;;5056445;28;20321;-80
2022/12/20 10:59:03;;;;;;;7.57;3.57;;;10.30;99.90;;;;;;5057452;28;20286;-79
2022/12/20 11:01:32;;;;;;;8.65;3.70;;;10.30;99.90;;;;;;5042103;28;20702;-80
2022/12/20 11:03:57;;;;;;;7.17;3.43;;;10.30;99.90;;;;;;5056377;28;20055;-78
2022/12/20 11:06:28;;;;;;;8.63;4.03;;;10.30;99.90;;;;;;5056296;28;20287;-80
2022/12/20 11:09:11;;;;;;;7.27;3.40;;;10.30;99.90;;;;;;5056910;28;20056;-79
2022/12/20 11:11:36;;;;;;;5.90;3.37;;;10.30;99.90;;;;;;5056428;28;20356;-78
2022/12/20 11:14:13;;;;;;;7.67;3.97;;;10.30;99.90;;;;;;5073585;28;20282;-80
2022/12/20 11:16:49;;;;;;;8.83;3.53;;;10.30;99.90;;;;;;5039893;28;20115;-78
2022/12/20 11:19:29;;;;;;;6.70;3.30;;;10.30;99.90;;;;;;5074751;28;20275;-78
2022/12/20 11:22:02;;;;;;;8.50;3.53;;;10.20;99.90;;;;;;5055323;28;20294;-76
2022/12/20 11:24:37;;;;;;;8.53;3.67;;;10.30;99.90;;;;;;5073547;28;20340;-74
2022/12/20 11:27:30;;;;;;;7.55;3.95;;;10.30;99.90;;;;;;5073590;28;20358;-74
2022/12/20 11:30:11;;;;;;;9.90;3.90;;;10.30;99.90;;;;;;5009575;28;20051;-74
2022/12/20 11:32:56;;;;;;;7.37;4.30;;;10.20;99.90;;;;;;5074020;28;20366;-74
2022/12/20 11:35:29;;;;;;;8.83;4.10;;;10.20;99.90;;;;;;5073753;28;20279;-74
2022/12/20 11:38:16;;;;;;;9.27;4.00;;;10.20;99.90;;;;;;5073788;28;20623;-74
2022/12/20 11:41:08;;;;;;;10.57;4.47;;;10.20;99.90;;;;;;5055865;28;20830;-73
2022/12/20 11:43:45;;;;;;;8.77;4.20;;;10.20;99.90;;;;;;5074193;28;20290;-73
2022/12/20 11:46:34;;;;;;;11.10;4.63;;;10.20;99.90;;;;;;5056211;28;20291;-75
2022/12/20 11:49:11;;;;;;;8.33;4.20;;;10.20;99.90;;;;;;5073707;28;20336;-74
2022/12/20 11:51:46;;;;;;;7.77;4.37;;;10.20;99.90;;;;;;5073225;28;20303;-82
2022/12/20 11:54:40;;;;;;;11.60;4.60;;;10.20;99.90;;;;;;5056140;28;20290;-78
2022/12/20 11:57:47;;;;;;;8.47;4.90;;;10.20;99.90;;;;;;5039507;28;20321;-78
2022/12/20 12:00:14;;;;;;;10.13;5.07;;;10.20;99.90;;;;;;5001538;28;20673;-78
2022/12/20 12:02:40;;;;;;;8.40;4.93;;;10.20;99.90;;;;;;5040169;28;20298;-79
2022/12/20 12:05:20;;;;;;;9.33;5.07;;;10.20;99.90;;;;;;5055732;28;20291;-79
2022/12/20 12:07:51;;;;;;;8.50;5.93;;;10.20;99.90;;;;;;5056518;28;20469;-79
2022/12/20 12:10:30;;;;;;;9.70;5.47;;;10.20;99.90;;;;;;5073225;28;20297;-77
2022/12/20 12:13:22;;;;;;;7.77;5.47;;;10.20;99.90;;;;;;5073009;28;20373;-82
2022/12/20 12:16:00;;;;;;;11.70;6.00;;;10.10;99.90;;;;;;5073358;28;20277;-81
2022/12/20 12:18:32;;;;;;;10.83;6.77;;;10.10;99.90;;;;;;5072967;28;20747;-79
2022/12/20 12:21:23;;;;;;;9.33;6.13;;;10.10;99.90;;;;;;5073898;28;20275;-76
2022/12/20 12:23:58;;;;;;;11.73;6.50;;;10.10;99.90;;;;;;5073537;28;20306;-79
2022/12/20 12:26:32;;;;;;;9.77;6.75;;;10.10;99.90;;;;;;5039372;28;20650;-77
2022/12/20 12:29:00;;;;;;;9.50;6.13;;;10.10;99.90;;;;;;5073109;28;20106;-79
2022/12/20 12:31:45;;;;;;;11.67;7.03;;;10.10;99.90;;;;;;5038406;28;20303;-77
2022/12/20 12:34:36;;;;;;;11.37;6.37;;;10.10;99.90;;;;;;5076514;28;20306;-77
2022/12/20 12:37:05;;;;;;;10.83;7.00;;;10.10;99.90;;;;;;5060274;28;20591;-77
2022/12/20 12:39:49;;;;;;;10.37;6.67;;;10.10;99.90;;;;;;5077072;28;20620;-79
2022/12/20 12:42:40;;;;;;;12.93;7.47;;;10.00;99.90;;;;;;5076878;28;20294;-80
2022/12/20 12:45:18;;;;;;;10.80;7.13;;;10.10;99.90;;;;;;5043414;28;20298;-77
2022/12/20 12:47:48;;;;;;;12.47;7.40;;;10.10;99.90;;;;;;5077490;28;20295;-80
2022/12/20 12:50:34;;;;;;;11.97;7.07;;;10.10;99.90;;;;;;5077047;28;20298;-77
2022/12/20 12:53:07;;;;;;;14.60;8.13;;;10.20;99.90;;;;;;5058864;28;20285;-77
2022/12/20 12:55:46;;;;;;;9.33;7.37;;;10.20;99.90;;;;;;5059638;28;20599;-78
2022/12/20 12:58:24;;;;;;;12.03;8.17;;;10.10;99.90;;;;;;5059373;28;20287;-76
2022/12/20 13:01:01;;;;;;;10.80;7.30;;;10.20;99.90;;;;;;5077397;28;20283;-79
2022/12/20 13:04:08;;;;;;;13.07;6.70;;;10.20;99.90;;;;;;5076830;28;20666;-79
2022/12/20 13:06:34;;;;;;;10.80;7.57;;;10.20;99.90;;;;;;5063469;28;20548;-79
2022/12/20 13:09:03;;;;;;;12.50;7.50;;;10.20;99.90;;;;;;5076465;28;20424;-80
2022/12/20 13:11:36;;;;;;;10.00;7.37;;;10.20;99.90;;;;;;5059181;28;20047;-80
2022/12/20 13:14:19;;;;;;;10.03;8.67;;;10.20;99.90;;;;;;5076406;28;20283;-80
2022/12/20 13:16:47;;;;;;;12.60;7.93;;;10.20;99.90;;;;;;5076418;28;20378;-79
2022/12/20 13:19:16;;;;;;;9.87;8.67;;;10.30;99.90;;;;;;5076327;28;20365;-80